createdAt,value
2023-01-01T00:11:25.575Z,11.07
2023-01-01T00:26:31.020Z,7.18
2023-01-01T00:41:36.189Z,6.68
2023-01-01T00:56:37.584Z,8.10
2023-01-01T01:11:39.446Z,7.55
2023-01-01T01:26:40.821Z,6.90
2023-01-01T01:41:42.822Z,5.32
2023-01-01T01:56:44.295Z,5.57
2023-01-01T02:11:45.624Z,5.72
2023-01-01T02:26:47.009Z,6.28
2023-01-01T02:41:48.357Z,5.25
2023-01-01T02:56:49.792Z,5.32
2023-01-01T03:11:51.180Z,5.25
2023-01-01T03:26:52.539Z,3.75
2023-01-01T03:41:54.123Z,4.20
2023-01-01T03:56:55.473Z,4.10
2023-01-01T04:12:04.815Z,3.33
2023-01-01T04:27:06.418Z,4.22
2023-01-01T04:42:07.763Z,3.10
2023-01-01T04:57:09.120Z,2.95
2023-01-01T05:12:10.468Z,2.80
2023-01-01T05:27:11.891Z,2.70
2023-01-01T05:42:15.779Z,2.70
2023-01-01T05:57:17.896Z,2.28
2023-01-01T06:12:19.293Z,2.50
2023-01-01T06:27:20.928Z,2.35
2023-01-01T06:42:22.359Z,3.10
2023-01-01T06:57:23.782Z,3.08
2023-01-01T07:12:25.176Z,1.90
2023-01-01T07:27:26.546Z,2.30
2023-01-01T07:42:27.889Z,2.13
2023-01-01T07:57:29.264Z,2.22
2023-01-01T08:12:30.638Z,2.45
2023-01-01T08:27:32.005Z,2.53
2023-01-01T08:42:33.424Z,2.80
2023-01-01T08:57:34.759Z,2.63
2023-01-01T09:12:36.146Z,3.03
2023-01-01T09:27:37.815Z,2.80
2023-01-01T09:42:39.203Z,2.58
2023-01-01T09:57:40.563Z,2.28
2023-01-01T10:12:42.014Z,2.30
2023-01-01T10:27:43.481Z,2.53
2023-01-01T10:42:44.875Z,2.70
2023-01-01T10:57:46.229Z,1.98
2023-01-01T11:13:04.638Z,2.20
2023-01-01T11:28:06.423Z,2.10
2023-01-01T11:43:08.529Z,2.20
2023-01-01T11:58:14.345Z,2.47
2023-01-01T12:13:19.055Z,2.17
2023-01-01T12:28:20.550Z,2.00
2023-01-01T12:43:21.935Z,2.00
2023-01-01T12:58:23.782Z,2.88
2023-01-01T13:13:25.161Z,2.38
2023-01-01T13:28:26.537Z,1.95
2023-01-01T13:43:28.072Z,2.50
2023-01-01T13:58:29.483Z,2.05
2023-01-01T14:13:32.311Z,2.33
2023-01-01T14:28:33.800Z,2.65
2023-01-01T14:43:35.194Z,3.47
2023-01-01T14:58:36.769Z,2.50
2023-01-01T15:13:38.154Z,3.15
2023-01-01T15:28:39.545Z,2.70
2023-01-01T15:43:41.314Z,2.72
2023-01-01T15:58:42.728Z,2.60
2023-01-01T16:13:44.141Z,2.30
2023-01-01T16:28:45.568Z,2.38
2023-01-01T16:43:47.026Z,2.90
2023-01-01T16:58:52.392Z,2.30
2023-01-01T17:13:56.815Z,2.88
2023-01-01T17:29:00.808Z,2.67
2023-01-01T17:44:02.656Z,2.58
2023-01-01T17:59:04.036Z,2.78
2023-01-01T18:14:05.424Z,2.60
2023-01-01T18:29:06.840Z,2.78
2023-01-01T18:44:08.235Z,2.65
2023-01-01T18:59:09.636Z,1.85
2023-01-01T19:14:11.222Z,2.08
2023-01-01T19:29:13.196Z,2.47
2023-01-01T19:44:18.521Z,2.38
2023-01-01T19:59:27.790Z,2.80
2023-01-01T20:14:34.172Z,2.33
2023-01-01T20:29:36.747Z,2.60
2023-01-01T20:44:38.168Z,2.10
2023-01-01T20:59:39.600Z,2.42
2023-01-01T21:14:40.985Z,1.60
2023-01-01T21:29:42.325Z,2.20
2023-01-01T21:44:43.702Z,2.10
2023-01-01T21:59:45.096Z,2.10
2023-01-01T22:14:47.128Z,1.70
2023-01-01T22:29:48.584Z,1.60
2023-01-01T22:44:49.938Z,1.80
2023-01-01T22:59:51.329Z,1.80
2023-01-01T23:15:11.482Z,1.80
2023-01-01T23:30:12.844Z,1.55
2023-01-01T23:45:14.213Z,1.85
